sensor_id;sensor_type;location;lat;lon;timestamp;P1;durP1;ratioP1;P2;durP2;ratioP2
8007;SDS011;4049;49.468;11.200;2022-11-14T00:00:01;24.97;;;11.10;;
8007;SDS011;4049;49.468;11.200;2022-11-14T00:02:30;20.23;;;10.83;;
8007;SDS011;4049;49.468;11.200;2022-11-14T00:04:56;18.77;;;10.80;;
8007;SDS011;4049;49.468;11.200;2022-11-14T00:07:23;20.40;;;9.50;;
8007;SDS011;4049;49.468;11.200;2022-11-14T00:09:55;18.63;;;10.10;;
8007;SDS011;4049;49.468;11.200;2022-11-14T00:12:22;15.87;;;9.70;;
8007;SDS011;4049;49.468;11.200;2022-11-14T00:14:49;22.27;;;9.93;;
8007;SDS011;4049;49.468;11.200;2022-11-14T00:17:16;19.23;;;10.00;;
8007;SDS011;4049;49.468;11.200;2022-11-14T00:19:43;18.93;;;9.50;;
8007;SDS011;4049;49.468;11.200;2022-11-14T00:22:10;21.03;;;10.23;;
8007;SDS011;4049;49.468;11.200;2022-11-14T00:24:37;16.23;;;9.27;;
8007;SDS011;4049;49.468;11.200;2022-11-14T00:27:05;20.93;;;10.50;;
8007;SDS011;4049;49.468;11.200;2022-11-14T00:29:32;21.90;;;10.47;;
8007;SDS011;4049;49.468;11.200;2022-11-14T00:32:02;19.83;;;10.43;;
8007;SDS011;4049;49.468;11.200;2022-11-14T00:34:29;20.27;;;10.70;;
8007;SDS011;4049;49.468;11.200;2022-11-14T00:36:56;20.90;;;10.80;;
8007;SDS011;4049;49.468;11.200;2022-11-14T00:39:22;21.87;;;11.70;;
8007;SDS011;4049;49.468;11.200;2022-11-14T00:41:49;26.27;;;12.53;;
8007;SDS011;4049;49.468;11.200;2022-11-14T00:44:18;20.90;;;10.77;;
8007;SDS011;4049;49.468;11.200;2022-11-14T00:46:44;22.57;;;10.57;;
8007;SDS011;4049;49.468;11.200;2022-11-14T00:49:11;21.67;;;11.97;;
8007;SDS011;4049;49.468;11.200;2022-11-14T00:51:38;19.30;;;10.27;;
8007;SDS011;4049;49.468;11.200;2022-11-14T00:54:05;17.97;;;10.40;;
8007;SDS011;4049;49.468;11.200;2022-11-14T00:56:32;19.53;;;10.73;;
8007;SDS011;4049;49.468;11.200;2022-11-14T00:58:59;16.83;;;9.57;;
8007;SDS011;4049;49.468;11.200;2022-11-14T01:01:27;20.43;;;10.37;;
8007;SDS011;4049;49.468;11.200;2022-11-14T01:03:54;17.30;;;9.50;;
8007;SDS011;4049;49.468;11.200;2022-11-14T01:06:21;16.77;;;9.00;;
8007;SDS011;4049;49.468;11.200;2022-11-14T01:08:48;21.23;;;9.43;;
8007;SDS011;4049;49.468;11.200;2022-11-14T01:11:17;18.10;;;9.63;;
8007;SDS011;4049;49.468;11.200;2022-11-14T01:13:46;20.07;;;9.07;;
8007;SDS011;4049;49.468;11.200;2022-11-14T01:16:13;16.67;;;9.17;;
8007;SDS011;4049;49.468;11.200;2022-11-14T01:18:41;15.57;;;9.50;;
8007;SDS011;4049;49.468;11.200;2022-11-14T01:21:08;20.60;;;10.40;;
8007;SDS011;4049;49.468;11.200;2022-11-14T01:23:36;19.90;;;10.33;;
8007;SDS011;4049;49.468;11.200;2022-11-14T01:26:04;21.00;;;10.00;;
8007;SDS011;4049;49.468;11.200;2022-11-14T01:28:34;19.83;;;9.80;;
8007;SDS011;4049;49.468;11.200;2022-11-14T01:31:08;19.40;;;9.60;;
8007;SDS011;4049;49.468;11.200;2022-11-14T01:33:36;15.93;;;9.10;;
8007;SDS011;4049;49.468;11.200;2022-11-14T01:36:04;16.70;;;9.53;;
8007;SDS011;4049;49.468;11.200;2022-11-14T01:38:32;19.97;;;9.63;;
8007;SDS011;4049;49.468;11.200;2022-11-14T01:40:59;19.13;;;9.67;;
8007;SDS011;4049;49.468;11.200;2022-11-14T01:43:30;21.37;;;10.33;;
8007;SDS011;4049;49.468;11.200;2022-11-14T01:46:01;22.87;;;11.07;;
8007;SDS011;4049;49.468;11.200;2022-11-14T01:48:34;17.53;;;9.83;;
8007;SDS011;4049;49.468;11.200;2022-11-14T01:51:09;18.73;;;10.43;;
8007;SDS011;4049;49.468;11.200;2022-11-14T01:53:43;22.80;;;10.57;;
8007;SDS011;4049;49.468;11.200;2022-11-14T01:56:13;19.87;;;10.20;;
8007;SDS011;4049;49.468;11.200;2022-11-14T01:58:43;17.90;;;10.23;;
8007;SDS011;4049;49.468;11.200;2022-11-14T02:01:13;17.13;;;9.27;;
8007;SDS011;4049;49.468;11.200;2022-11-14T02:03:41;18.30;;;10.57;;
8007;SDS011;4049;49.468;11.200;2022-11-14T02:06:13;19.63;;;10.93;;
8007;SDS011;4049;49.468;11.200;2022-11-14T02:08:43;22.00;;;10.10;;
8007;SDS011;4049;49.468;11.200;2022-11-14T02:11:11;20.50;;;10.40;;
8007;SDS011;4049;49.468;11.200;2022-11-14T02:13:38;18.70;;;9.27;;
8007;SDS011;4049;49.468;11.200;2022-11-14T02:16:05;19.40;;;9.47;;
8007;SDS011;4049;49.468;11.200;2022-11-14T02:18:32;18.37;;;9.90;;
8007;SDS011;4049;49.468;11.200;2022-11-14T02:21:00;17.73;;;10.27;;
8007;SDS011;4049;49.468;11.200;2022-11-14T02:23:28;24.43;;;11.03;;
8007;SDS011;4049;49.468;11.200;2022-11-14T02:25:56;19.53;;;11.03;;
8007;SDS011;4049;49.468;11.200;2022-11-14T02:28:23;18.70;;;10.13;;
8007;SDS011;4049;49.468;11.200;2022-11-14T02:30:50;18.90;;;9.87;;
8007;SDS011;4049;49.468;11.200;2022-11-14T02:33:17;20.37;;;10.77;;
8007;SDS011;4049;49.468;11.200;2022-11-14T02:35:44;23.97;;;11.97;;
8007;SDS011;4049;49.468;11.200;2022-11-14T02:38:12;19.70;;;11.03;;
8007;SDS011;4049;49.468;11.200;2022-11-14T02:40:38;23.27;;;11.93;;
8007;SDS011;4049;49.468;11.200;2022-11-14T02:43:05;20.77;;;11.47;;
8007;SDS011;4049;49.468;11.200;2022-11-14T02:45:32;22.50;;;11.30;;
8007;SDS011;4049;49.468;11.200;2022-11-14T02:47:59;19.77;;;11.27;;
8007;SDS011;4049;49.468;11.200;2022-11-14T02:50:26;24.30;;;12.00;;
8007;SDS011;4049;49.468;11.200;2022-11-14T02:52:53;22.07;;;11.50;;
8007;SDS011;4049;49.468;11.200;2022-11-14T02:55:21;21.40;;;10.83;;
8007;SDS011;4049;49.468;11.200;2022-11-14T02:57:48;21.20;;;11.23;;
8007;SDS011;4049;49.468;11.200;2022-11-14T03:00:15;21.20;;;11.13;;
8007;SDS011;4049;49.468;11.200;2022-11-14T03:02:43;20.60;;;10.67;;
8007;SDS011;4049;49.468;11.200;2022-11-14T03:05:10;21.60;;;11.63;;
8007;SDS011;4049;49.468;11.200;2022-11-14T03:07:37;22.30;;;11.27;;
8007;SDS011;4049;49.468;11.200;2022-11-14T03:10:04;20.93;;;11.07;;
8007;SDS011;4049;49.468;11.200;2022-11-14T03:12:33;20.70;;;10.63;;
8007;SDS011;4049;49.468;11.200;2022-11-14T03:15:00;20.53;;;10.57;;
8007;SDS011;4049;49.468;11.200;2022-11-14T03:17:29;22.17;;;10.80;;
8007;SDS011;4049;49.468;11.200;2022-11-14T03:19:57;20.23;;;10.30;;
8007;SDS011;4049;49.468;11.200;2022-11-14T03:22:24;19.43;;;10.47;;
8007;SDS011;4049;49.468;11.200;2022-11-14T03:24:51;23.17;;;11.70;;
8007;SDS011;4049;49.468;11.200;2022-11-14T03:27:18;20.97;;;10.83;;
8007;SDS011;4049;49.468;11.200;2022-11-14T03:29:47;19.60;;;10.30;;
8007;SDS011;4049;49.468;11.200;2022-11-14T03:32:14;19.17;;;9.80;;
8007;SDS011;4049;49.468;11.200;2022-11-14T03:34:42;16.77;;;9.57;;
8007;SDS011;4049;49.468;11.200;2022-11-14T03:37:09;17.73;;;9.30;;
8007;SDS011;4049;49.468;11.200;2022-11-14T03:39:36;20.30;;;9.90;;
8007;SDS011;4049;49.468;11.200;2022-11-14T03:42:05;18.27;;;10.07;;
8007;SDS011;4049;49.468;11.200;2022-11-14T03:44:36;21.87;;;11.23;;
8007;SDS011;4049;49.468;11.200;2022-11-14T03:47:04;18.90;;;10.40;;
8007;SDS011;4049;49.468;11.200;2022-11-14T03:49:31;21.30;;;10.97;;
8007;SDS011;4049;49.468;11.200;2022-11-14T03:51:57;19.87;;;10.73;;
8007;SDS011;4049;49.468;11.200;2022-11-14T03:54:24;18.67;;;9.60;;
8007;SDS011;4049;49.468;11.200;2022-11-14T03:56:51;19.33;;;10.70;;
8007;SDS011;4049;49.468;11.200;2022-11-14T03:59:18;20.07;;;10.77;;
8007;SDS011;4049;49.468;11.200;2022-11-14T04:01:44;24.57;;;11.70;;
8007;SDS011;4049;49.468;11.200;2022-11-14T04:04:14;23.93;;;11.80;;
8007;SDS011;4049;49.468;11.200;2022-11-14T04:06:41;21.40;;;10.67;;
8007;SDS011;4049;49.468;11.200;2022-11-14T04:09:08;20.77;;;11.27;;
8007;SDS011;4049;49.468;11.200;2022-11-14T04:11:35;20.23;;;11.33;;
8007;SDS011;4049;49.468;11.200;2022-11-14T04:14:02;23.07;;;11.13;;
8007;SDS011;4049;49.468;11.200;2022-11-14T04:16:29;23.87;;;11.60;;
8007;SDS011;4049;49.468;11.200;2022-11-14T04:18:56;25.03;;;11.57;;
8007;SDS011;4049;49.468;11.200;2022-11-14T04:21:24;21.23;;;11.83;;
8007;SDS011;4049;49.468;11.200;2022-11-14T04:23:51;21.17;;;11.83;;
8007;SDS011;4049;49.468;11.200;2022-11-14T04:26:17;26.23;;;12.20;;
8007;SDS011;4049;49.468;11.200;2022-11-14T04:28:44;19.93;;;10.37;;
8007;SDS011;4049;49.468;11.200;2022-11-14T04:31:11;19.27;;;10.73;;
8007;SDS011;4049;49.468;11.200;2022-11-14T04:33:38;22.37;;;11.20;;
8007;SDS011;4049;49.468;11.200;2022-11-14T04:36:06;20.93;;;10.70;;
8007;SDS011;4049;49.468;11.200;2022-11-14T04:38:35;19.67;;;10.83;;
8007;SDS011;4049;49.468;11.200;2022-11-14T04:41:03;19.90;;;11.27;;
8007;SDS011;4049;49.468;11.200;2022-11-14T04:43:30;25.37;;;11.30;;
8007;SDS011;4049;49.468;11.200;2022-11-14T04:45:57;20.13;;;10.70;;
8007;SDS011;4049;49.468;11.200;2022-11-14T04:48:24;19.43;;;9.93;;
8007;SDS011;4049;49.468;11.200;2022-11-14T04:50:50;18.40;;;9.73;;
8007;SDS011;4049;49.468;11.200;2022-11-14T04:53:17;20.67;;;10.53;;
8007;SDS011;4049;49.468;11.200;2022-11-14T04:55:45;19.83;;;10.67;;
8007;SDS011;4049;49.468;11.200;2022-11-14T04:58:12;20.13;;;10.20;;
8007;SDS011;4049;49.468;11.200;2022-11-14T05:00:39;18.27;;;9.37;;
8007;SDS011;4049;49.468;11.200;2022-11-14T05:03:07;18.97;;;9.97;;
8007;SDS011;4049;49.468;11.200;2022-11-14T05:05:33;15.57;;;9.60;;
8007;SDS011;4049;49.468;11.200;2022-11-14T05:08:00;19.77;;;10.20;;
8007;SDS011;4049;49.468;11.200;2022-11-14T05:10:27;19.67;;;9.83;;
8007;SDS011;4049;49.468;11.200;2022-11-14T05:12:55;17.43;;;10.10;;
8007;SDS011;4049;49.468;11.200;2022-11-14T05:15:22;20.47;;;9.87;;
8007;SDS011;4049;49.468;11.200;2022-11-14T05:17:49;16.07;;;9.33;;
8007;SDS011;4049;49.468;11.200;2022-11-14T05:20:16;15.83;;;9.07;;
8007;SDS011;4049;49.468;11.200;2022-11-14T05:22:42;17.77;;;9.97;;
8007;SDS011;4049;49.468;11.200;2022-11-14T05:25:09;17.17;;;9.93;;
8007;SDS011;4049;49.468;11.200;2022-11-14T05:27:36;15.17;;;8.70;;
8007;SDS011;4049;49.468;11.200;2022-11-14T05:30:05;16.20;;;9.03;;
8007;SDS011;4049;49.468;11.200;2022-11-14T05:32:32;17.40;;;9.40;;
8007;SDS011;4049;49.468;11.200;2022-11-14T05:34:59;18.57;;;9.27;;
8007;SDS011;4049;49.468;11.200;2022-11-14T05:37:26;18.37;;;9.77;;
8007;SDS011;4049;49.468;11.200;2022-11-14T05:39:53;16.93;;;9.13;;
8007;SDS011;4049;49.468;11.200;2022-11-14T05:42:19;17.93;;;9.93;;
8007;SDS011;4049;49.468;11.200;2022-11-14T05:44:46;17.67;;;9.77;;
8007;SDS011;4049;49.468;11.200;2022-11-14T05:47:14;20.53;;;9.70;;
8007;SDS011;4049;49.468;11.200;2022-11-14T05:49:41;17.73;;;9.40;;
8007;SDS011;4049;49.468;11.200;2022-11-14T05:52:09;18.33;;;9.50;;
8007;SDS011;4049;49.468;11.200;2022-11-14T05:54:36;16.93;;;9.93;;
8007;SDS011;4049;49.468;11.200;2022-11-14T05:57:03;23.07;;;10.30;;
8007;SDS011;4049;49.468;11.200;2022-11-14T05:59:30;17.10;;;9.00;;
8007;SDS011;4049;49.468;11.200;2022-11-14T06:01:57;15.67;;;8.57;;
8007;SDS011;4049;49.468;11.200;2022-11-14T06:04:25;16.00;;;9.47;;
8007;SDS011;4049;49.468;11.200;2022-11-14T06:06:52;14.90;;;9.03;;
8007;SDS011;4049;49.468;11.200;2022-11-14T06:09:18;16.97;;;9.30;;
8007;SDS011;4049;49.468;11.200;2022-11-14T06:11:45;15.77;;;9.50;;
8007;SDS011;4049;49.468;11.200;2022-11-14T06:14:12;17.83;;;9.73;;
8007;SDS011;4049;49.468;11.200;2022-11-14T06:16:39;15.73;;;9.43;;
8007;SDS011;4049;49.468;11.200;2022-11-14T06:19:06;20.50;;;10.10;;
8007;SDS011;4049;49.468;11.200;2022-11-14T06:21:34;21.60;;;10.77;;
8007;SDS011;4049;49.468;11.200;2022-11-14T06:24:01;19.00;;;10.07;;
8007;SDS011;4049;49.468;11.200;2022-11-14T06:26:28;18.53;;;10.33;;
8007;SDS011;4049;49.468;11.200;2022-11-14T06:28:56;16.90;;;9.77;;
8007;SDS011;4049;49.468;11.200;2022-11-14T06:31:24;19.03;;;10.10;;
8007;SDS011;4049;49.468;11.200;2022-11-14T06:33:51;20.23;;;11.03;;
8007;SDS011;4049;49.468;11.200;2022-11-14T06:36:20;18.37;;;9.80;;
8007;SDS011;4049;49.468;11.200;2022-11-14T06:38:49;22.37;;;10.10;;
8007;SDS011;4049;49.468;11.200;2022-11-14T06:41:17;21.40;;;10.00;;
8007;SDS011;4049;49.468;11.200;2022-11-14T06:43:45;18.67;;;10.00;;
8007;SDS011;4049;49.468;11.200;2022-11-14T06:46:14;19.57;;;10.97;;
8007;SDS011;4049;49.468;11.200;2022-11-14T06:48:44;20.57;;;10.50;;
8007;SDS011;4049;49.468;11.200;2022-11-14T06:51:12;22.43;;;11.67;;
8007;SDS011;4049;49.468;11.200;2022-11-14T06:53:40;21.33;;;11.33;;
8007;SDS011;4049;49.468;11.200;2022-11-14T06:56:09;20.90;;;10.83;;
8007;SDS011;4049;49.468;11.200;2022-11-14T06:58:37;22.47;;;11.33;;
8007;SDS011;4049;49.468;11.200;2022-11-14T07:01:06;21.13;;;11.00;;
8007;SDS011;4049;49.468;11.200;2022-11-14T07:03:35;20.37;;;11.10;;
8007;SDS011;4049;49.468;11.200;2022-11-14T07:06:03;21.63;;;11.37;;
8007;SDS011;4049;49.468;11.200;2022-11-14T07:08:30;19.87;;;10.87;;
8007;SDS011;4049;49.468;11.200;2022-11-14T07:11:01;20.30;;;10.57;;
8007;SDS011;4049;49.468;11.200;2022-11-14T07:13:30;21.73;;;11.57;;
8007;SDS011;4049;49.468;11.200;2022-11-14T07:15:58;22.83;;;10.90;;
8007;SDS011;4049;49.468;11.200;2022-11-14T07:18:25;21.43;;;12.77;;
8007;SDS011;4049;49.468;11.200;2022-11-14T07:20:55;21.90;;;12.20;;
8007;SDS011;4049;49.468;11.200;2022-11-14T07:23:23;20.43;;;11.00;;
8007;SDS011;4049;49.468;11.200;2022-11-14T07:25:50;18.03;;;10.63;;
8007;SDS011;4049;49.468;11.200;2022-11-14T07:28:17;19.63;;;10.40;;
8007;SDS011;4049;49.468;11.200;2022-11-14T07:30:46;19.33;;;10.40;;
8007;SDS011;4049;49.468;11.200;2022-11-14T07:33:13;22.70;;;10.73;;
8007;SDS011;4049;49.468;11.200;2022-11-14T07:35:39;17.97;;;9.53;;
8007;SDS011;4049;49.468;11.200;2022-11-14T07:38:06;16.07;;;9.83;;
8007;SDS011;4049;49.468;11.200;2022-11-14T07:40:33;16.27;;;9.23;;
8007;SDS011;4049;49.468;11.200;2022-11-14T07:43:00;18.07;;;9.53;;
8007;SDS011;4049;49.468;11.200;2022-11-14T07:45:28;15.67;;;8.83;;
8007;SDS011;4049;49.468;11.200;2022-11-14T07:47:56;19.53;;;10.53;;
8007;SDS011;4049;49.468;11.200;2022-11-14T07:50:24;20.23;;;10.63;;
8007;SDS011;4049;49.468;11.200;2022-11-14T07:52:52;20.10;;;11.07;;
8007;SDS011;4049;49.468;11.200;2022-11-14T07:55:21;21.80;;;11.63;;
8007;SDS011;4049;49.468;11.200;2022-11-14T07:57:50;20.30;;;10.47;;
8007;SDS011;4049;49.468;11.200;2022-11-14T08:00:18;17.93;;;9.50;;
8007;SDS011;4049;49.468;11.200;2022-11-14T08:02:45;18.83;;;10.20;;
8007;SDS011;4049;49.468;11.200;2022-11-14T08:05:14;16.73;;;9.47;;
8007;SDS011;4049;49.468;11.200;2022-11-14T08:07:41;15.13;;;9.97;;
8007;SDS011;4049;49.468;11.200;2022-11-14T08:10:08;20.43;;;11.77;;
8007;SDS011;4049;49.468;11.200;2022-11-14T08:12:36;19.83;;;9.97;;
8007;SDS011;4049;49.468;11.200;2022-11-14T08:15:04;20.70;;;11.40;;
8007;SDS011;4049;49.468;11.200;2022-11-14T08:17:31;22.03;;;11.70;;
8007;SDS011;4049;49.468;11.200;2022-11-14T08:19:58;20.40;;;12.03;;
8007;SDS011;4049;49.468;11.200;2022-11-14T08:22:26;22.73;;;11.37;;
8007;SDS011;4049;49.468;11.200;2022-11-14T08:24:55;21.03;;;12.00;;
8007;SDS011;4049;49.468;11.200;2022-11-14T08:27:21;18.47;;;10.63;;
8007;SDS011;4049;49.468;11.200;2022-11-14T08:29:48;20.97;;;11.90;;
8007;SDS011;4049;49.468;11.200;2022-11-14T08:32:16;21.00;;;11.17;;
8007;SDS011;4049;49.468;11.200;2022-11-14T08:34:43;20.43;;;11.70;;
8007;SDS011;4049;49.468;11.200;2022-11-14T08:37:10;22.10;;;11.30;;
8007;SDS011;4049;49.468;11.200;2022-11-14T08:39:38;18.93;;;10.63;;
8007;SDS011;4049;49.468;11.200;2022-11-14T08:42:05;17.50;;;9.83;;
8007;SDS011;4049;49.468;11.200;2022-11-14T08:44:32;17.97;;;10.23;;
8007;SDS011;4049;49.468;11.200;2022-11-14T08:46:58;17.97;;;10.20;;
8007;SDS011;4049;49.468;11.200;2022-11-14T08:49:26;17.87;;;10.30;;
8007;SDS011;4049;49.468;11.200;2022-11-14T08:51:53;18.00;;;10.80;;
8007;SDS011;4049;49.468;11.200;2022-11-14T08:54:20;19.63;;;10.63;;
8007;SDS011;4049;49.468;11.200;2022-11-14T08:56:48;21.50;;;11.50;;
8007;SDS011;4049;49.468;11.200;2022-11-14T08:59:15;16.83;;;9.73;;
8007;SDS011;4049;49.468;11.200;2022-11-14T09:01:41;19.73;;;10.50;;
8007;SDS011;4049;49.468;11.200;2022-11-14T09:04:10;20.40;;;10.53;;
8007;SDS011;4049;49.468;11.200;2022-11-14T09:06:37;20.57;;;10.80;;
8007;SDS011;4049;49.468;11.200;2022-11-14T09:09:04;19.30;;;10.77;;
8007;SDS011;4049;49.468;11.200;2022-11-14T09:11:31;19.10;;;10.10;;
8007;SDS011;4049;49.468;11.200;2022-11-14T09:13:59;19.50;;;10.33;;
8007;SDS011;4049;49.468;11.200;2022-11-14T09:16:26;19.57;;;8.97;;
8007;SDS011;4049;49.468;11.200;2022-11-14T09:18:53;19.73;;;10.60;;
8007;SDS011;4049;49.468;11.200;2022-11-14T09:21:20;16.73;;;9.47;;
8007;SDS011;4049;49.468;11.200;2022-11-14T09:23:47;14.07;;;7.83;;
8007;SDS011;4049;49.468;11.200;2022-11-14T09:26:14;11.87;;;6.60;;
8007;SDS011;4049;49.468;11.200;2022-11-14T09:28:42;10.87;;;6.07;;
8007;SDS011;4049;49.468;11.200;2022-11-14T09:31:11;9.53;;;5.67;;
8007;SDS011;4049;49.468;11.200;2022-11-14T09:33:39;10.97;;;6.47;;
8007;SDS011;4049;49.468;11.200;2022-11-14T09:36:07;8.73;;;5.63;;
8007;SDS011;4049;49.468;11.200;2022-11-14T09:38:40;8.40;;;5.13;;
8007;SDS011;4049;49.468;11.200;2022-11-14T09:41:16;7.97;;;5.10;;
8007;SDS011;4049;49.468;11.200;2022-11-14T09:43:56;8.10;;;5.13;;
8007;SDS011;4049;49.468;11.200;2022-11-14T09:46:44;9.60;;;5.17;;
8007;SDS011;4049;49.468;11.200;2022-11-14T09:49:18;10.13;;;5.03;;
8007;SDS011;4049;49.468;11.200;2022-11-14T09:51:52;7.17;;;4.80;;
8007;SDS011;4049;49.468;11.200;2022-11-14T09:54:23;6.17;;;4.53;;
8007;SDS011;4049;49.468;11.200;2022-11-14T09:56:53;7.80;;;5.03;;
8007;SDS011;4049;49.468;11.200;2022-11-14T09:59:20;9.77;;;5.27;;
8007;SDS011;4049;49.468;11.200;2022-11-14T10:01:50;7.80;;;4.50;;
8007;SDS011;4049;49.468;11.200;2022-11-14T10:04:29;8.40;;;4.70;;
8007;SDS011;4049;49.468;11.200;2022-11-14T10:07:08;7.53;;;4.50;;
8007;SDS011;4049;49.468;11.200;2022-11-14T10:09:46;5.90;;;4.13;;
8007;SDS011;4049;49.468;11.200;2022-11-14T10:12:20;6.83;;;4.40;;
8007;SDS011;4049;49.468;11.200;2022-11-14T10:14:57;6.60;;;4.27;;
8007;SDS011;4049;49.468;11.200;2022-11-14T10:20:28;7.93;;;4.57;;
8007;SDS011;4049;49.468;11.200;2022-11-14T10:23:02;6.47;;;4.23;;
8007;SDS011;4049;49.468;11.200;2022-11-14T10:25:42;5.00;;;3.70;;
8007;SDS011;4049;49.468;11.200;2022-11-14T10:31:14;6.67;;;4.03;;
8007;SDS011;4049;49.468;11.200;2022-11-14T10:33:51;6.20;;;4.00;;
8007;SDS011;4049;49.468;11.200;2022-11-14T10:36:27;7.00;;;3.70;;
8007;SDS011;4049;49.468;11.200;2022-11-14T10:39:10;6.27;;;4.33;;
8007;SDS011;4049;49.468;11.200;2022-11-14T10:41:41;5.83;;;3.83;;
8007;SDS011;4049;49.468;11.200;2022-11-14T10:44:10;6.23;;;3.97;;
8007;SDS011;4049;49.468;11.200;2022-11-14T10:46:44;5.77;;;3.80;;
8007;SDS011;4049;49.468;11.200;2022-11-14T10:49:16;8.10;;;4.60;;
8007;SDS011;4049;49.468;11.200;2022-11-14T10:51:46;6.37;;;4.13;;
8007;SDS011;4049;49.468;11.200;2022-11-14T10:54:18;6.57;;;4.20;;
8007;SDS011;4049;49.468;11.200;2022-11-14T10:56:49;5.50;;;3.73;;
8007;SDS011;4049;49.468;11.200;2022-11-14T10:59:17;5.60;;;4.10;;
8007;SDS011;4049;49.468;11.200;2022-11-14T11:01:45;5.00;;;3.90;;
8007;SDS011;4049;49.468;11.200;2022-11-14T11:04:21;7.83;;;3.50;;
8007;SDS011;4049;49.468;11.200;2022-11-14T11:06:51;6.87;;;4.10;;
8007;SDS011;4049;49.468;11.200;2022-11-14T11:09:20;4.57;;;3.50;;
8007;SDS011;4049;49.468;11.200;2022-11-14T11:12:07;4.83;;;3.60;;
8007;SDS011;4049;49.468;11.200;2022-11-14T11:14:39;4.97;;;3.13;;
8007;SDS011;4049;49.468;11.200;2022-11-14T11:17:06;5.27;;;3.43;;
8007;SDS011;4049;49.468;11.200;2022-11-14T11:19:42;3.97;;;3.10;;
8007;SDS011;4049;49.468;11.200;2022-11-14T11:22:22;6.07;;;3.93;;
8007;SDS011;4049;49.468;11.200;2022-11-14T11:24:53;4.87;;;3.17;;
8007;SDS011;4049;49.468;11.200;2022-11-14T11:27:22;4.53;;;3.13;;
8007;SDS011;4049;49.468;11.200;2022-11-14T11:30:00;3.90;;;2.97;;
8007;SDS011;4049;49.468;11.200;2022-11-14T11:32:30;4.20;;;3.17;;
8007;SDS011;4049;49.468;11.200;2022-11-14T11:34:59;5.30;;;2.87;;
8007;SDS011;4049;49.468;11.200;2022-11-14T11:37:29;4.30;;;3.27;;
8007;SDS011;4049;49.468;11.200;2022-11-14T11:40:00;5.03;;;3.40;;
8007;SDS011;4049;49.468;11.200;2022-11-14T11:42:29;4.00;;;3.00;;
8007;SDS011;4049;49.468;11.200;2022-11-14T11:45:04;3.60;;;2.90;;
8007;SDS011;4049;49.468;11.200;2022-11-14T11:47:39;4.33;;;3.20;;
8007;SDS011;4049;49.468;11.200;2022-11-14T11:50:13;3.87;;;3.20;;
8007;SDS011;4049;49.468;11.200;2022-11-14T11:52:43;4.63;;;3.30;;
8007;SDS011;4049;49.468;11.200;2022-11-14T11:55:17;4.23;;;3.00;;
8007;SDS011;4049;49.468;11.200;2022-11-14T11:57:50;4.50;;;3.17;;
8007;SDS011;4049;49.468;11.200;2022-11-14T12:00:26;4.07;;;3.03;;
8007;SDS011;4049;49.468;11.200;2022-11-14T12:02:53;4.03;;;2.97;;
8007;SDS011;4049;49.468;11.200;2022-11-14T12:05:24;4.47;;;2.80;;
8007;SDS011;4049;49.468;11.200;2022-11-14T12:07:57;4.07;;;3.03;;
8007;SDS011;4049;49.468;11.200;2022-11-14T12:10:29;3.97;;;3.07;;
8007;SDS011;4049;49.468;11.200;2022-11-14T12:16:10;5.07;;;3.00;;
8007;SDS011;4049;49.468;11.200;2022-11-14T12:18:53;3.60;;;2.77;;
8007;SDS011;4049;49.468;11.200;2022-11-14T12:21:46;5.43;;;3.40;;
8007;SDS011;4049;49.468;11.200;2022-11-14T12:24:41;4.90;;;3.20;;
8007;SDS011;4049;49.468;11.200;2022-11-14T12:27:32;6.60;;;3.47;;
8007;SDS011;4049;49.468;11.200;2022-11-14T12:30:09;4.63;;;2.90;;
8007;SDS011;4049;49.468;11.200;2022-11-14T12:32:40;3.30;;;2.80;;
8007;SDS011;4049;49.468;11.200;2022-11-14T12:35:13;3.87;;;2.73;;
8007;SDS011;4049;49.468;11.200;2022-11-14T12:37:45;3.50;;;2.67;;
8007;SDS011;4049;49.468;11.200;2022-11-14T12:40:18;5.13;;;3.10;;
8007;SDS011;4049;49.468;11.200;2022-11-14T12:42:52;4.93;;;3.40;;
8007;SDS011;4049;49.468;11.200;2022-11-14T12:48:27;4.57;;;3.03;;
8007;SDS011;4049;49.468;11.200;2022-11-14T12:50:56;5.57;;;2.93;;
8007;SDS011;4049;49.468;11.200;2022-11-14T12:53:39;4.00;;;2.93;;
8007;SDS011;4049;49.468;11.200;2022-11-14T12:56:19;3.90;;;2.83;;
8007;SDS011;4049;49.468;11.200;2022-11-14T12:59:17;4.07;;;3.17;;
8007;SDS011;4049;49.468;11.200;2022-11-14T13:02:00;4.23;;;2.80;;
8007;SDS011;4049;49.468;11.200;2022-11-14T13:04:51;6.53;;;3.17;;
8007;SDS011;4049;49.468;11.200;2022-11-14T13:07:29;4.20;;;3.07;;
8007;SDS011;4049;49.468;11.200;2022-11-14T13:10:14;3.30;;;2.50;;
8007;SDS011;4049;49.468;11.200;2022-11-14T13:12:41;4.37;;;3.07;;
8007;SDS011;4049;49.468;11.200;2022-11-14T13:15:46;4.47;;;2.77;;
8007;SDS011;4049;49.468;11.200;2022-11-14T13:18:32;3.93;;;2.70;;
8007;SDS011;4049;49.468;11.200;2022-11-14T13:21:19;3.27;;;2.30;;
8007;SDS011;4049;49.468;11.200;2022-11-14T13:24:05;3.43;;;2.53;;
8007;SDS011;4049;49.468;11.200;2022-11-14T13:26:38;2.70;;;2.20;;
8007;SDS011;4049;49.468;11.200;2022-11-14T13:35:33;3.73;;;2.57;;
8007;SDS011;4049;49.468;11.200;2022-11-14T13:41:24;3.30;;;2.10;;
8007;SDS011;4049;49.468;11.200;2022-11-14T13:44:08;7.50;;;2.57;;
8007;SDS011;4049;49.468;11.200;2022-11-14T13:47:02;2.37;;;1.90;;
8007;SDS011;4049;49.468;11.200;2022-11-14T13:49:48;2.63;;;1.93;;
8007;SDS011;4049;49.468;11.200;2022-11-14T13:52:24;2.30;;;1.60;;
8007;SDS011;4049;49.468;11.200;2022-11-14T13:54:53;3.07;;;1.73;;
8007;SDS011;4049;49.468;11.200;2022-11-14T13:57:22;2.00;;;1.57;;
8007;SDS011;4049;49.468;11.200;2022-11-14T14:00:04;2.60;;;1.70;;
8007;SDS011;4049;49.468;11.200;2022-11-14T14:05:33;2.50;;;1.60;;
8007;SDS011;4049;49.468;11.200;2022-11-14T14:08:20;3.90;;;1.70;;
8007;SDS011;4049;49.468;11.200;2022-11-14T14:11:06;2.10;;;1.60;;
8007;SDS011;4049;49.468;11.200;2022-11-14T14:13:50;2.43;;;1.67;;
8007;SDS011;4049;49.468;11.200;2022-11-14T14:16:28;1.80;;;1.53;;
8007;SDS011;4049;49.468;11.200;2022-11-14T14:19:01;1.80;;;1.50;;
8007;SDS011;4049;49.468;11.200;2022-11-14T14:21:39;2.43;;;1.40;;
8007;SDS011;4049;49.468;11.200;2022-11-14T14:24:13;2.10;;;1.57;;
8007;SDS011;4049;49.468;11.200;2022-11-14T14:27:00;3.40;;;1.60;;
8007;SDS011;4049;49.468;11.200;2022-11-14T14:29:38;2.13;;;1.63;;
8007;SDS011;4049;49.468;11.200;2022-11-14T14:32:12;1.90;;;1.70;;
8007;SDS011;4049;49.468;11.200;2022-11-14T14:34:39;1.80;;;1.60;;
8007;SDS011;4049;49.468;11.200;2022-11-14T14:37:13;2.30;;;1.73;;
8007;SDS011;4049;49.468;11.200;2022-11-14T14:39:53;2.70;;;1.70;;
8007;SDS011;4049;49.468;11.200;2022-11-14T14:42:21;7.63;;;2.20;;
8007;SDS011;4049;49.468;11.200;2022-11-14T14:44:49;2.37;;;2.13;;
8007;SDS011;4049;49.468;11.200;2022-11-14T14:47:25;3.73;;;2.20;;
8007;SDS011;4049;49.468;11.200;2022-11-14T14:49:58;2.73;;;2.10;;
8007;SDS011;4049;49.468;11.200;2022-11-14T14:52:27;6.13;;;2.30;;
8007;SDS011;4049;49.468;11.200;2022-11-14T14:54:55;2.47;;;2.00;;
8007;SDS011;4049;49.468;11.200;2022-11-14T14:57:26;2.90;;;2.00;;
8007;SDS011;4049;49.468;11.200;2022-11-14T14:59:59;3.73;;;2.43;;
8007;SDS011;4049;49.468;11.200;2022-11-14T15:02:28;3.23;;;2.20;;
8007;SDS011;4049;49.468;11.200;2022-11-14T15:04:55;5.00;;;2.23;;
8007;SDS011;4049;49.468;11.200;2022-11-14T15:07:25;4.97;;;2.20;;
8007;SDS011;4049;49.468;11.200;2022-11-14T15:09:54;4.47;;;2.27;;
8007;SDS011;4049;49.468;11.200;2022-11-14T15:12:23;2.57;;;2.27;;
8007;SDS011;4049;49.468;11.200;2022-11-14T15:14:52;3.60;;;2.57;;
8007;SDS011;4049;49.468;11.200;2022-11-14T15:17:20;3.73;;;2.70;;
8007;SDS011;4049;49.468;11.200;2022-11-14T15:19:49;4.20;;;2.70;;
8007;SDS011;4049;49.468;11.200;2022-11-14T15:22:22;5.47;;;2.43;;
8007;SDS011;4049;49.468;11.200;2022-11-14T15:25:15;3.43;;;2.47;;
8007;SDS011;4049;49.468;11.200;2022-11-14T15:27:44;3.00;;;2.33;;
8007;SDS011;4049;49.468;11.200;2022-11-14T15:30:20;2.90;;;2.10;;